createdAt,value
2019-03-27T00:00:43.803Z,0.00
2019-03-27T00:01:43.796Z,0.00
2019-03-27T00:02:43.782Z,0.00
2019-03-27T00:03:43.769Z,0.00
2019-03-27T00:04:43.763Z,0.00
2019-03-27T00:05:43.746Z,0.00
2019-03-27T00:06:43.735Z,0.00
2019-03-27T00:07:43.724Z,0.00
2019-03-27T00:08:43.719Z,0.00
2019-03-27T00:09:43.702Z,0.00
2019-03-27T00:10:43.694Z,0.00
2019-03-27T00:11:43.680Z,0.00
2019-03-27T00:12:43.671Z,0.00
2019-03-27T00:13:43.674Z,0.00
2019-03-27T00:14:43.651Z,0.00
2019-03-27T00:15:43.639Z,0.00
2019-03-27T00:16:43.628Z,0.00
2019-03-27T00:17:43.614Z,0.00
2019-03-27T00:18:43.609Z,0.00
2019-03-27T00:19:43.599Z,0.00
2019-03-27T00:20:43.582Z,0.00
2019-03-27T00:21:43.571Z,0.00
2019-03-27T00:22:43.559Z,0.00
2019-03-27T00:23:43.567Z,0.00
2019-03-27T00:24:43.537Z,0.00
2019-03-27T00:25:43.526Z,0.00
2019-03-27T00:26:43.520Z,0.00
2019-03-27T00:27:43.507Z,0.00
2019-03-27T00:28:43.492Z,0.00
2019-03-27T00:29:43.480Z,0.00
2019-03-27T00:30:43.471Z,0.00
2019-03-27T00:31:43.462Z,0.00
2019-03-27T00:32:43.449Z,0.00
2019-03-27T00:33:43.437Z,0.00
2019-03-27T00:34:43.427Z,0.00
2019-03-27T00:35:43.418Z,0.00
2019-03-27T00:36:43.407Z,0.00
2019-03-27T00:37:43.398Z,0.00
2019-03-27T00:38:43.385Z,0.00
2019-03-27T00:39:43.376Z,0.00
2019-03-27T00:40:43.363Z,0.00
2019-03-27T00:41:43.352Z,0.00
2019-03-27T00:42:43.340Z,0.00
2019-03-27T00:43:43.331Z,0.00
2019-03-27T00:44:43.321Z,0.00
2019-03-27T00:45:43.314Z,0.00
2019-03-27T00:46:43.300Z,0.00
2019-03-27T00:47:43.289Z,0.00
2019-03-27T00:48:43.275Z,0.00
2019-03-27T00:49:43.284Z,0.00
2019-03-27T00:50:43.251Z,0.00
2019-03-27T00:51:43.243Z,0.00
2019-03-27T00:52:43.230Z,0.00
2019-03-27T00:53:43.220Z,0.00
2019-03-27T00:54:43.207Z,0.00
2019-03-27T00:55:43.201Z,0.00
2019-03-27T00:56:43.187Z,0.00
2019-03-27T00:57:43.173Z,0.00
2019-03-27T00:58:43.167Z,0.00
2019-03-27T00:59:43.153Z,0.00
2019-03-27T01:00:43.144Z,0.00
2019-03-27T01:01:43.137Z,0.00
2019-03-27T01:02:43.122Z,0.00
2019-03-27T01:03:43.110Z,0.00
2019-03-27T01:04:43.099Z,0.00
2019-03-27T01:05:43.093Z,0.00
2019-03-27T01:06:43.080Z,0.00
2019-03-27T01:07:43.068Z,0.00
2019-03-27T01:08:43.138Z,0.00
2019-03-27T01:09:43.051Z,0.00
2019-03-27T01:10:43.034Z,0.00
2019-03-27T01:11:43.023Z,0.00
2019-03-27T01:12:43.018Z,0.00
2019-03-27T01:13:43.007Z,0.00
2019-03-27T01:14:42.989Z,0.00
2019-03-27T01:15:42.981Z,0.00
2019-03-27T01:16:42.971Z,0.00
2019-03-27T01:17:42.958Z,0.00
2019-03-27T01:18:42.943Z,0.00
2019-03-27T01:19:42.934Z,0.00
2019-03-27T01:20:42.922Z,0.00
2019-03-27T01:21:42.912Z,0.00
2019-03-27T01:22:42.900Z,0.00
2019-03-27T01:23:42.892Z,0.00
2019-03-27T01:24:42.879Z,0.00
2019-03-27T01:25:42.867Z,0.00
2019-03-27T01:26:42.859Z,0.00
2019-03-27T01:27:42.850Z,0.00
2019-03-27T01:28:42.842Z,0.00
2019-03-27T01:29:42.823Z,0.00
2019-03-27T01:30:42.815Z,0.00
2019-03-27T01:31:42.801Z,0.00
2019-03-27T01:32:42.864Z,0.00
2019-03-27T01:33:42.784Z,0.00
2019-03-27T01:34:42.772Z,0.00
2019-03-27T01:35:42.766Z,0.00
2019-03-27T01:36:42.753Z,0.00
2019-03-27T01:37:42.741Z,0.00
2019-03-27T01:38:42.724Z,0.00
2019-03-27T01:39:42.720Z,0.00
2019-03-27T01:40:42.707Z,0.00
2019-03-27T01:41:42.694Z,0.00
2019-03-27T01:42:42.683Z,0.00
2019-03-27T01:43:42.670Z,0.00
2019-03-27T01:44:42.660Z,0.00
2019-03-27T01:45:52.507Z,0.00
2019-03-27T01:46:43.639Z,0.00
2019-03-27T01:47:42.634Z,0.00
2019-03-27T01:48:42.616Z,0.00
2019-03-27T01:49:42.606Z,0.00
2019-03-27T01:50:42.595Z,0.00
2019-03-27T01:51:42.583Z,0.00
2019-03-27T01:52:42.573Z,0.00
2019-03-27T01:53:42.562Z,0.00
2019-03-27T01:54:42.548Z,0.00
2019-03-27T01:55:42.542Z,0.00
2019-03-27T01:56:42.527Z,0.00
2019-03-27T01:57:42.530Z,0.00
2019-03-27T01:58:42.514Z,0.00
2019-03-27T01:59:42.494Z,0.00
2019-03-27T02:00:42.490Z,0.00
2019-03-27T02:01:42.471Z,0.00
2019-03-27T02:02:42.466Z,0.00
2019-03-27T02:03:42.456Z,0.00
2019-03-27T02:04:42.441Z,0.00
2019-03-27T02:05:42.429Z,0.00
2019-03-27T02:06:42.428Z,0.00
2019-03-27T02:07:42.407Z,0.00
2019-03-27T02:08:42.396Z,0.00
2019-03-27T02:09:42.387Z,0.00
2019-03-27T02:10:42.373Z,0.00
2019-03-27T02:11:42.362Z,0.00
2019-03-27T02:12:42.360Z,0.00
2019-03-27T02:13:42.348Z,0.00
2019-03-27T02:14:42.333Z,0.00
2019-03-27T02:15:42.319Z,0.00
2019-03-27T02:16:42.308Z,0.00
2019-03-27T02:17:42.304Z,0.00
2019-03-27T02:18:42.283Z,0.00
2019-03-27T02:19:42.274Z,0.00
2019-03-27T02:20:42.264Z,0.00
2019-03-27T02:21:42.281Z,0.00
2019-03-27T02:22:42.245Z,0.00
2019-03-27T02:23:42.234Z,0.00
2019-03-27T02:24:42.222Z,0.00
2019-03-27T02:25:42.208Z,0.00
2019-03-27T02:26:42.199Z,0.00
2019-03-27T02:27:42.187Z,0.00
2019-03-27T02:28:42.176Z,0.00
2019-03-27T02:29:42.165Z,0.00
2019-03-27T02:30:42.156Z,0.00
2019-03-27T02:31:42.151Z,0.00
2019-03-27T02:32:42.175Z,0.00
2019-03-27T02:33:42.122Z,0.00
2019-03-27T02:34:42.119Z,0.00
2019-03-27T02:35:42.102Z,0.00
2019-03-27T02:36:42.090Z,0.00
2019-03-27T02:37:42.084Z,0.00
2019-03-27T02:38:42.071Z,0.00
2019-03-27T02:39:42.058Z,0.00
2019-03-27T02:40:42.044Z,0.00
2019-03-27T02:41:42.036Z,0.00
2019-03-27T02:42:42.020Z,0.00
2019-03-27T02:43:42.018Z,0.00
2019-03-27T02:44:42.000Z,0.00
2019-03-27T02:45:41.987Z,0.00
2019-03-27T02:46:41.975Z,0.00
2019-03-27T02:47:41.968Z,0.00
2019-03-27T02:48:41.958Z,0.00
2019-03-27T02:49:41.941Z,0.00
2019-03-27T02:50:41.934Z,0.00
2019-03-27T02:51:41.930Z,0.00
2019-03-27T02:52:41.910Z,0.00
2019-03-27T02:53:41.902Z,0.00
2019-03-27T02:54:41.890Z,0.00
2019-03-27T02:55:41.877Z,0.00
2019-03-27T02:56:41.864Z,0.00
2019-03-27T02:57:41.855Z,0.00
2019-03-27T02:58:41.849Z,0.00
2019-03-27T02:59:41.918Z,0.00
2019-03-27T03:00:41.822Z,0.00
2019-03-27T03:01:41.813Z,0.00
2019-03-27T03:02:41.817Z,0.00
2019-03-27T03:03:41.789Z,0.00
2019-03-27T03:04:41.784Z,0.00
2019-03-27T03:05:41.768Z,0.00
2019-03-27T03:06:41.759Z,0.00
2019-03-27T03:07:41.743Z,0.00
2019-03-27T03:08:41.735Z,0.00
2019-03-27T03:09:41.721Z,0.00
2019-03-27T03:10:45.230Z,0.00
2019-03-27T03:11:41.707Z,0.00
2019-03-27T03:12:41.688Z,0.00
2019-03-27T03:13:41.679Z,0.00
2019-03-27T03:14:41.670Z,0.00
2019-03-27T03:15:41.657Z,0.00
2019-03-27T03:16:43.306Z,0.00
2019-03-27T03:17:41.636Z,0.00
2019-03-27T03:18:41.624Z,0.00
2019-03-27T03:19:41.609Z,0.00
2019-03-27T03:20:41.604Z,0.00
2019-03-27T03:21:41.591Z,0.00
2019-03-27T03:22:41.603Z,0.00
2019-03-27T03:23:41.647Z,0.00
2019-03-27T03:24:41.557Z,0.00
2019-03-27T03:25:41.544Z,0.00
2019-03-27T03:26:41.532Z,0.00
2019-03-27T03:27:41.521Z,0.00
2019-03-27T03:28:41.516Z,0.00
2019-03-27T03:29:41.499Z,0.00
2019-03-27T03:30:41.489Z,0.00
2019-03-27T03:31:41.480Z,0.00
2019-03-27T03:32:41.474Z,0.00
2019-03-27T03:33:41.485Z,0.00
2019-03-27T03:34:41.469Z,0.00
2019-03-27T03:35:41.441Z,0.00
2019-03-27T03:36:41.425Z,0.00
2019-03-27T03:37:41.417Z,0.00
2019-03-27T03:38:41.413Z,0.00
2019-03-27T03:39:41.394Z,0.00
2019-03-27T03:40:41.394Z,0.00
2019-03-27T03:41:41.409Z,0.00
2019-03-27T03:42:41.363Z,0.00
2019-03-27T03:43:41.348Z,0.00
2019-03-27T03:44:41.340Z,0.00
2019-03-27T03:45:41.324Z,0.00
2019-03-27T03:46:58.355Z,0.00
2019-03-27T03:47:42.307Z,0.00
2019-03-27T03:48:41.288Z,0.00
2019-03-27T03:49:41.277Z,0.00
2019-03-27T03:50:41.272Z,0.00
2019-03-27T03:51:41.276Z,0.00
2019-03-27T03:52:45.543Z,0.00
2019-03-27T03:53:41.239Z,0.00
2019-03-27T03:54:41.229Z,0.00
2019-03-27T03:55:41.220Z,0.00
2019-03-27T03:56:41.204Z,0.00
2019-03-27T03:57:41.189Z,0.00
2019-03-27T03:58:41.180Z,0.00
2019-03-27T03:59:41.168Z,0.00
2019-03-27T04:00:41.158Z,0.00
2019-03-27T04:01:41.146Z,0.00
2019-03-27T04:02:41.135Z,0.00
2019-03-27T04:03:41.136Z,0.00
2019-03-27T04:04:41.123Z,0.00
2019-03-27T04:05:41.105Z,0.00
2019-03-27T04:06:41.089Z,0.00
2019-03-27T04:07:41.079Z,0.00
2019-03-27T04:08:41.066Z,0.00
2019-03-27T04:09:41.054Z,0.00
2019-03-27T04:10:41.056Z,0.00
2019-03-27T04:11:41.116Z,0.00
2019-03-27T04:12:41.027Z,0.00
2019-03-27T04:13:41.080Z,0.00
2019-03-27T04:14:40.998Z,0.00
2019-03-27T04:15:41.010Z,0.00
2019-03-27T04:16:40.976Z,0.00
2019-03-27T04:17:40.964Z,0.00
2019-03-27T04:18:40.952Z,0.00
2019-03-27T04:19:40.947Z,0.00
2019-03-27T04:20:40.932Z,0.00
2019-03-27T04:21:40.921Z,0.00
2019-03-27T04:22:40.911Z,0.00
2019-03-27T04:23:40.900Z,0.00
2019-03-27T04:24:40.888Z,0.00
2019-03-27T04:26:07.217Z,0.00
2019-03-27T04:26:41.862Z,0.00
2019-03-27T04:27:40.862Z,0.00
2019-03-27T04:28:40.845Z,0.00
2019-03-27T04:29:40.833Z,0.00
2019-03-27T04:30:40.827Z,0.00
2019-03-27T04:31:40.807Z,0.00
2019-03-27T04:32:40.793Z,0.00
2019-03-27T04:33:40.800Z,0.00
2019-03-27T04:34:40.781Z,0.00
2019-03-27T04:35:40.762Z,0.00
2019-03-27T04:36:40.755Z,0.00
2019-03-27T04:37:40.742Z,0.00
2019-03-27T04:38:40.730Z,0.00
2019-03-27T04:39:40.721Z,0.00
2019-03-27T04:40:40.719Z,0.00
2019-03-27T04:41:40.701Z,0.00
2019-03-27T04:42:40.693Z,0.00
2019-03-27T04:43:40.682Z,0.00
2019-03-27T04:44:40.661Z,0.00
2019-03-27T04:45:40.654Z,0.00
2019-03-27T04:46:40.642Z,0.00
2019-03-27T04:47:40.639Z,0.00
2019-03-27T04:48:40.618Z,0.00
2019-03-27T04:49:40.603Z,0.00
2019-03-27T04:50:40.598Z,0.00
2019-03-27T04:51:40.584Z,0.00
2019-03-27T04:52:40.571Z,0.00
2019-03-27T04:53:40.561Z,0.00
2019-03-27T04:54:40.551Z,0.00
2019-03-27T04:55:40.539Z,0.00
2019-03-27T04:56:40.527Z,5.62
2019-03-27T04:57:40.520Z,5.62
2019-03-27T04:58:40.508Z,5.62
2019-03-27T04:59:40.502Z,5.62
2019-03-27T05:00:40.487Z,5.62
2019-03-27T05:01:40.469Z,11.25
2019-03-27T05:02:40.466Z,11.25
2019-03-27T05:03:40.471Z,11.25
2019-03-27T05:04:40.450Z,16.88
2019-03-27T05:05:40.431Z,16.88
2019-03-27T05:06:40.430Z,16.88
2019-03-27T05:07:40.405Z,22.50
2019-03-27T05:08:40.395Z,22.50
2019-03-27T05:09:40.383Z,22.50
2019-03-27T05:10:40.374Z,28.12
2019-03-27T05:11:40.365Z,28.12
2019-03-27T05:12:40.369Z,33.75
2019-03-27T05:13:40.342Z,33.75
2019-03-27T05:14:40.331Z,39.38
2019-03-27T05:15:40.314Z,39.38
2019-03-27T05:16:40.318Z,45.00
2019-03-27T05:17:46.351Z,50.62
2019-03-27T05:18:41.302Z,50.62
2019-03-27T05:19:40.311Z,56.25
2019-03-27T05:20:40.268Z,61.88
2019-03-27T05:21:40.254Z,61.88
2019-03-27T05:22:40.235Z,67.50
2019-03-27T05:23:40.224Z,73.12
2019-03-27T05:24:40.212Z,78.75
2019-03-27T05:25:40.203Z,78.75
2019-03-27T05:26:40.192Z,84.38
2019-03-27T05:27:40.185Z,90.00
2019-03-27T05:28:40.167Z,95.62
2019-03-27T05:29:40.164Z,101.25
2019-03-27T05:30:40.155Z,101.25
2019-03-27T05:31:40.131Z,106.88
2019-03-27T05:32:40.121Z,112.50
2019-03-27T05:33:40.112Z,118.12
2019-03-27T05:34:40.108Z,123.75
2019-03-27T05:35:40.089Z,123.75
2019-03-27T05:36:40.080Z,129.38
2019-03-27T05:37:40.070Z,135.00
2019-03-27T05:38:40.057Z,140.62
2019-03-27T05:39:40.062Z,140.62
2019-03-27T05:40:40.037Z,146.25
2019-03-27T05:41:40.024Z,151.88
2019-03-27T05:42:40.014Z,163.12
2019-03-27T05:43:40.015Z,185.62
2019-03-27T05:44:39.993Z,196.88
2019-03-27T05:45:39.982Z,202.50
2019-03-27T05:46:39.973Z,208.12
2019-03-27T05:47:39.974Z,213.75
2019-03-27T05:48:39.953Z,225.00
2019-03-27T05:49:39.958Z,225.00
2019-03-27T05:50:39.924Z,236.25
2019-03-27T05:51:39.916Z,236.25
2019-03-27T05:52:39.906Z,241.88
2019-03-27T05:53:39.898Z,247.50
2019-03-27T05:54:39.881Z,253.12
2019-03-27T05:55:39.874Z,258.75
2019-03-27T05:56:39.861Z,264.38
2019-03-27T05:57:39.851Z,270.00
2019-03-27T05:58:39.833Z,275.62
2019-03-27T05:59:39.831Z,275.62
2019-03-27T06:00:39.819Z,275.62
2019-03-27T06:01:39.803Z,281.25
2019-03-27T06:02:39.793Z,281.25
2019-03-27T06:03:39.780Z,286.88
2019-03-27T06:04:39.769Z,292.50
2019-03-27T06:05:39.764Z,298.12
2019-03-27T06:06:39.750Z,303.75
2019-03-27T06:07:39.918Z,309.38
2019-03-27T06:08:39.783Z,315.00
2019-03-27T06:09:39.740Z,315.00
2019-03-27T06:10:39.802Z,326.25
2019-03-27T06:11:39.724Z,331.88
2019-03-27T06:12:39.716Z,343.12
2019-03-27T06:13:39.825Z,348.75
2019-03-27T06:14:39.751Z,360.00
2019-03-27T06:15:39.792Z,365.62
2019-03-27T06:16:39.691Z,371.25
2019-03-27T06:17:39.710Z,382.50
2019-03-27T06:18:39.736Z,388.12
2019-03-27T06:19:39.682Z,393.75
2019-03-27T06:20:39.609Z,405.00
2019-03-27T06:21:40.251Z,410.62
2019-03-27T06:22:39.780Z,421.88
2019-03-27T06:23:39.794Z,433.12
2019-03-27T06:24:39.571Z,438.75
2019-03-27T06:25:39.544Z,450.00
2019-03-27T06:26:39.620Z,461.25
2019-03-27T06:27:39.516Z,483.75
2019-03-27T06:28:39.527Z,523.12
2019-03-27T06:29:39.522Z,613.12
2019-03-27T06:30:39.488Z,691.88
2019-03-27T06:31:39.471Z,736.88
2019-03-27T06:32:39.456Z,967.50
2019-03-27T06:33:39.445Z,1305.00
2019-03-27T06:34:39.434Z,1265.62
2019-03-27T06:35:39.429Z,1293.75
2019-03-27T06:36:39.414Z,1372.50
2019-03-27T06:37:39.409Z,1186.88
2019-03-27T06:38:39.400Z,1096.88
2019-03-27T06:39:39.386Z,1136.25
2019-03-27T06:40:39.799Z,1260.00
2019-03-27T06:41:39.361Z,1310.62
2019-03-27T06:42:39.352Z,1248.75
2019-03-27T06:43:39.336Z,1265.62
2019-03-27T06:44:39.342Z,1243.12
2019-03-27T06:45:39.319Z,1215.00
2019-03-27T06:46:39.313Z,1260.00
2019-03-27T06:47:39.296Z,1243.12
2019-03-27T06:48:39.279Z,1186.88
2019-03-27T06:49:39.271Z,1288.12
2019-03-27T06:50:39.261Z,1265.62
2019-03-27T06:51:40.470Z,1293.75
2019-03-27T06:52:39.247Z,1248.75
2019-03-27T06:53:39.225Z,1158.75
2019-03-27T06:54:39.236Z,1057.50
2019-03-27T06:55:39.200Z,1113.75
2019-03-27T06:56:39.192Z,1254.38
2019-03-27T06:57:39.186Z,1226.25
2019-03-27T06:58:39.171Z,1271.25
2019-03-27T06:59:39.158Z,1327.50
2019-03-27T07:00:39.149Z,1417.50
2019-03-27T07:01:39.134Z,1327.50
2019-03-27T07:02:39.127Z,1299.38
2019-03-27T07:03:39.141Z,1473.75
2019-03-27T07:04:39.117Z,1614.38
2019-03-27T07:05:39.094Z,1636.88
2019-03-27T07:06:39.130Z,1603.12
2019-03-27T07:07:39.073Z,1693.12
2019-03-27T07:08:39.062Z,1833.75
2019-03-27T07:09:42.279Z,1738.12
2019-03-27T07:10:39.041Z,1721.25
2019-03-27T07:11:39.040Z,1726.88
2019-03-27T07:12:39.014Z,1755.00
2019-03-27T07:13:39.011Z,2008.12
2019-03-27T07:14:38.996Z,2261.25
2019-03-27T07:15:38.987Z,2053.12
2019-03-27T07:16:38.976Z,1800.00
2019-03-27T07:17:38.990Z,1867.50
2019-03-27T07:18:40.417Z,1963.12
2019-03-27T07:19:38.939Z,1895.62
2019-03-27T07:20:41.060Z,2250.00
2019-03-27T07:21:38.926Z,2435.62
2019-03-27T07:22:38.909Z,2041.88
2019-03-27T07:23:38.918Z,1980.00
2019-03-27T07:24:38.887Z,1991.25
2019-03-27T07:25:38.871Z,1839.38
2019-03-27T07:26:38.887Z,1805.62
2019-03-27T07:27:38.876Z,1839.38
2019-03-27T07:28:38.839Z,2205.00
2019-03-27T07:29:38.823Z,2160.00
2019-03-27T07:30:38.823Z,1906.88
2019-03-27T07:31:38.804Z,1918.12
2019-03-27T07:32:38.844Z,1726.88
2019-03-27T07:33:38.782Z,1383.75
2019-03-27T07:34:39.099Z,1237.50
2019-03-27T07:35:38.779Z,1220.62
2019-03-27T07:36:38.770Z,1237.50
2019-03-27T07:37:38.739Z,1243.12
2019-03-27T07:38:38.751Z,1248.75
2019-03-27T07:39:38.717Z,1248.75
2019-03-27T07:40:38.706Z,1265.62
2019-03-27T07:41:38.746Z,1254.38
2019-03-27T07:42:38.680Z,1237.50
2019-03-27T07:43:38.673Z,1186.88
2019-03-27T07:44:38.659Z,1181.25
2019-03-27T07:45:38.651Z,1153.12
2019-03-27T07:46:38.650Z,1096.88
2019-03-27T07:47:38.624Z,1102.50
2019-03-27T07:48:38.712Z,945.00
2019-03-27T07:49:38.636Z,967.50
2019-03-27T07:50:38.594Z,967.50
2019-03-27T07:51:38.584Z,973.12
2019-03-27T07:52:38.575Z,1080.00
2019-03-27T07:54:47.636Z,1068.75
2019-03-27T07:55:47.455Z,1085.62
2019-03-27T07:57:18.040Z,871.88
2019-03-27T07:58:17.998Z,838.12
2019-03-27T07:59:49.814Z,866.25
2019-03-27T08:00:48.766Z,855.00
2019-03-27T08:02:19.167Z,995.62
2019-03-27T08:03:19.093Z,956.25
2019-03-27T08:04:19.089Z,922.50
2019-03-27T08:05:19.061Z,905.62
2019-03-27T08:06:19.075Z,832.50
2019-03-27T08:07:26.618Z,843.75
2019-03-27T08:08:20.053Z,888.75
2019-03-27T08:09:19.015Z,939.38
2019-03-27T08:10:19.010Z,995.62
2019-03-27T08:11:19.057Z,1063.12
2019-03-27T08:12:18.985Z,990.00
2019-03-27T08:13:18.974Z,1012.50
2019-03-27T08:14:19.559Z,928.12
2019-03-27T08:15:18.962Z,911.25
2019-03-27T08:16:18.939Z,939.38
2019-03-27T08:17:18.943Z,905.62
2019-03-27T08:18:18.926Z,877.50
2019-03-27T08:19:18.914Z,916.88
2019-03-27T08:20:18.895Z,922.50
2019-03-27T08:21:18.887Z,967.50
2019-03-27T08:22:18.872Z,1170.00
2019-03-27T08:23:18.871Z,1288.12
2019-03-27T08:24:18.858Z,1181.25
2019-03-27T08:25:18.852Z,1192.50
2019-03-27T08:26:18.859Z,1181.25
2019-03-27T08:27:18.815Z,1136.25
2019-03-27T08:28:18.803Z,1136.25
2019-03-27T08:29:18.807Z,1316.25
2019-03-27T08:30:18.785Z,1524.38
2019-03-27T08:31:18.774Z,1524.38
2019-03-27T08:32:18.819Z,1586.25
2019-03-27T08:33:18.754Z,1501.88
2019-03-27T08:34:18.744Z,1794.38
2019-03-27T08:35:18.743Z,1895.62
2019-03-27T08:36:18.719Z,2098.12
2019-03-27T08:37:18.710Z,2148.75
2019-03-27T08:38:18.700Z,2306.25
2019-03-27T08:39:18.687Z,2047.50
2019-03-27T08:40:18.676Z,2261.25
2019-03-27T08:41:18.665Z,1642.50
2019-03-27T08:42:18.656Z,2008.12
2019-03-27T08:43:21.524Z,2649.38
2019-03-27T08:44:18.630Z,2570.62
2019-03-27T08:45:18.622Z,2503.12
2019-03-27T08:46:18.620Z,2705.62
2019-03-27T08:47:18.600Z,2818.12
2019-03-27T08:48:18.644Z,2593.12
2019-03-27T08:49:22.318Z,2508.75
2019-03-27T08:50:18.560Z,2390.62
2019-03-27T08:51:18.557Z,2317.50
2019-03-27T08:52:18.541Z,2446.88
2019-03-27T08:53:18.532Z,2171.25
2019-03-27T08:54:18.520Z,2441.25
2019-03-27T08:55:18.523Z,2323.12
2019-03-27T08:56:18.500Z,2199.38
2019-03-27T08:57:18.487Z,2323.12
2019-03-27T08:58:18.479Z,2311.88
2019-03-27T08:59:18.487Z,2300.62
2019-03-27T09:00:21.286Z,2446.88
2019-03-27T09:01:18.452Z,2576.25
2019-03-27T09:02:18.436Z,2525.62
2019-03-27T09:03:18.506Z,2683.12
2019-03-27T09:04:18.469Z,2891.25
2019-03-27T09:05:18.398Z,3043.12
2019-03-27T09:06:18.497Z,2964.38
2019-03-27T09:07:18.379Z,3138.75
2019-03-27T09:08:18.392Z,3301.88
2019-03-27T09:09:18.361Z,3166.88
2019-03-27T09:10:18.349Z,2998.12
2019-03-27T09:11:18.338Z,3076.88
2019-03-27T09:12:18.331Z,2503.12
2019-03-27T09:13:18.415Z,3105.00
2019-03-27T09:14:18.313Z,2385.00
2019-03-27T09:15:18.399Z,2373.75
2019-03-27T09:16:18.392Z,2739.38
2019-03-27T09:17:18.270Z,2362.50
2019-03-27T09:18:18.361Z,2407.50
2019-03-27T09:19:18.443Z,1895.62
2019-03-27T09:20:18.298Z,1226.25
2019-03-27T09:21:18.281Z,1181.25
2019-03-27T09:22:18.248Z,1136.25
2019-03-27T09:23:18.248Z,1130.62
2019-03-27T09:24:18.234Z,1091.25
2019-03-27T09:25:18.221Z,1085.62
2019-03-27T09:26:18.201Z,1102.50
2019-03-27T09:27:18.198Z,1147.50
2019-03-27T09:28:18.298Z,1366.88
2019-03-27T09:29:18.193Z,1186.88
2019-03-27T09:30:18.140Z,1220.62
2019-03-27T09:31:18.158Z,1355.62
2019-03-27T09:32:18.120Z,1608.75
2019-03-27T09:33:18.093Z,1901.25
2019-03-27T09:34:18.088Z,2070.00
2019-03-27T09:35:18.080Z,2120.62
2019-03-27T09:36:18.069Z,2160.00
2019-03-27T09:37:18.051Z,1755.00
2019-03-27T09:38:18.051Z,1608.75
2019-03-27T09:39:18.038Z,1681.88
2019-03-27T09:40:18.058Z,1805.62
2019-03-27T09:41:21.249Z,1597.50
2019-03-27T09:42:18.005Z,1642.50
2019-03-27T09:43:17.997Z,1659.38
2019-03-27T09:44:17.977Z,1985.62
2019-03-27T09:45:18.050Z,1828.12
2019-03-27T09:46:17.993Z,1800.00
2019-03-27T09:47:17.953Z,1738.12
2019-03-27T09:48:18.027Z,1569.38
2019-03-27T09:49:17.928Z,1580.62
2019-03-27T09:50:17.915Z,1535.62
2019-03-27T09:51:17.903Z,1614.38
2019-03-27T09:52:17.899Z,2205.00
2019-03-27T09:53:17.886Z,1935.00
2019-03-27T09:54:17.870Z,1996.88
2019-03-27T09:55:17.862Z,2036.25
2019-03-27T09:56:19.338Z,1878.75
2019-03-27T09:57:17.834Z,2053.12
2019-03-27T09:58:17.840Z,1856.25
2019-03-27T09:59:17.824Z,1659.38
2019-03-27T10:00:17.805Z,1563.75
2019-03-27T10:01:17.804Z,1434.38
2019-03-27T10:02:17.784Z,1406.25
2019-03-27T10:03:17.768Z,1423.12
2019-03-27T10:04:17.761Z,1440.00
2019-03-27T10:05:17.749Z,1428.75
2019-03-27T10:06:17.736Z,1473.75
2019-03-27T10:07:17.748Z,1485.00
2019-03-27T10:08:17.714Z,1586.25
2019-03-27T10:09:17.703Z,1389.38
2019-03-27T10:10:17.697Z,1378.12
2019-03-27T10:11:17.684Z,1411.88
2019-03-27T10:12:17.672Z,1333.12
2019-03-27T10:13:17.658Z,1288.12
2019-03-27T10:14:17.658Z,1310.62
2019-03-27T10:15:17.642Z,1316.25
2019-03-27T10:16:17.631Z,1400.62
2019-03-27T10:17:17.614Z,1406.25
2019-03-27T10:18:17.628Z,1462.50
2019-03-27T10:19:17.613Z,1873.12
2019-03-27T10:20:17.692Z,2238.75
2019-03-27T10:21:17.589Z,2058.75
2019-03-27T10:22:17.562Z,1957.50
2019-03-27T10:23:17.551Z,1777.50
2019-03-27T10:24:17.567Z,1794.38
2019-03-27T10:25:17.532Z,1828.12
2019-03-27T10:26:17.535Z,2958.75
2019-03-27T10:27:17.526Z,2148.75
2019-03-27T10:28:17.506Z,2491.88
2019-03-27T10:29:17.517Z,2373.75
2019-03-27T10:30:17.475Z,2700.00
2019-03-27T10:31:17.471Z,2655.00
2019-03-27T10:32:17.454Z,2638.12
2019-03-27T10:33:17.452Z,3279.38
2019-03-27T10:34:17.429Z,3476.25
2019-03-27T10:35:17.421Z,3650.62
2019-03-27T10:36:17.434Z,3785.62
2019-03-27T10:37:17.404Z,3155.62
2019-03-27T10:38:17.465Z,3088.12
2019-03-27T10:39:17.389Z,2806.88
2019-03-27T10:40:17.377Z,2115.00
2019-03-27T10:41:17.502Z,2677.50
2019-03-27T10:42:17.355Z,2896.88
2019-03-27T10:43:17.368Z,1749.38
2019-03-27T10:44:17.660Z,1693.12
2019-03-27T10:45:17.316Z,1608.75
2019-03-27T10:46:17.304Z,1513.12
2019-03-27T10:47:17.316Z,1428.75
2019-03-27T10:48:17.281Z,1423.12
2019-03-27T10:49:17.271Z,1389.38
2019-03-27T10:50:18.163Z,1361.25
2019-03-27T10:51:17.403Z,1321.88
2019-03-27T10:52:17.252Z,1338.75
2019-03-27T10:53:17.226Z,1355.62
2019-03-27T10:54:17.217Z,1361.25
2019-03-27T10:55:17.210Z,1440.00
2019-03-27T10:56:17.257Z,1597.50
2019-03-27T10:57:17.260Z,1653.75
2019-03-27T10:58:17.194Z,1732.50
2019-03-27T10:59:17.271Z,1344.38
2019-03-27T11:00:17.297Z,1839.38
2019-03-27T11:01:17.159Z,2311.88
2019-03-27T11:02:17.154Z,2188.12
2019-03-27T11:03:17.121Z,2041.88
2019-03-27T11:04:17.107Z,2795.62
2019-03-27T11:05:17.106Z,2716.88
2019-03-27T11:06:17.093Z,2784.38
2019-03-27T11:07:17.074Z,2818.12
2019-03-27T11:08:17.065Z,2812.50
2019-03-27T11:09:17.080Z,2767.50
2019-03-27T11:10:17.058Z,2835.00
2019-03-27T11:11:17.038Z,2587.50
2019-03-27T11:12:17.026Z,2846.25
2019-03-27T11:13:17.020Z,3116.25
2019-03-27T11:14:17.061Z,2671.88
2019-03-27T11:15:16.990Z,2244.38
2019-03-27T11:16:16.990Z,2587.50
2019-03-27T11:17:17.179Z,2992.50
2019-03-27T11:18:16.960Z,2756.25
2019-03-27T11:19:17.008Z,2610.00
2019-03-27T11:20:29.947Z,2581.88
2019-03-27T11:21:17.927Z,2655.00
2019-03-27T11:22:16.948Z,2486.25
2019-03-27T11:23:16.956Z,2193.75
2019-03-27T11:24:16.900Z,2098.12
2019-03-27T11:25:16.889Z,2278.12
2019-03-27T11:26:16.882Z,2458.12
2019-03-27T11:27:16.914Z,2396.25
2019-03-27T11:28:16.904Z,2520.00
2019-03-27T11:29:16.856Z,2671.88
2019-03-27T11:30:16.853Z,2598.75
2019-03-27T11:31:16.827Z,2362.50
2019-03-27T11:32:16.814Z,2716.88
2019-03-27T11:33:16.894Z,3256.88
2019-03-27T11:34:16.834Z,3431.25
2019-03-27T11:35:16.779Z,3341.25
2019-03-27T11:36:16.774Z,3408.75
2019-03-27T11:37:16.762Z,3172.50
2019-03-27T11:38:16.956Z,2711.25
2019-03-27T11:39:16.750Z,2553.75
2019-03-27T11:40:16.725Z,2548.12
2019-03-27T11:41:16.767Z,2430.00
2019-03-27T11:42:16.713Z,2705.62
2019-03-27T11:43:16.730Z,3301.88
2019-03-27T11:44:16.735Z,3645.00
2019-03-27T11:45:16.677Z,3701.25
2019-03-27T11:46:16.666Z,3060.00
2019-03-27T11:47:16.681Z,2801.25
2019-03-27T11:48:16.725Z,2227.50
2019-03-27T11:49:16.817Z,2086.88
2019-03-27T11:50:16.789Z,2081.25
2019-03-27T11:51:16.636Z,2565.00
2019-03-27T11:52:16.609Z,2638.12
2019-03-27T11:53:16.628Z,2941.88
2019-03-27T11:54:16.632Z,2981.25
2019-03-27T11:55:16.577Z,1828.12
2019-03-27T11:56:16.628Z,2981.25
2019-03-27T11:57:16.568Z,2660.62
2019-03-27T11:58:16.740Z,2385.00
2019-03-27T11:59:16.610Z,1451.25
2019-03-27T12:00:16.541Z,2131.88
2019-03-27T12:01:16.519Z,2081.25
2019-03-27T12:02:16.704Z,1811.25
2019-03-27T12:03:16.490Z,1614.38
2019-03-27T12:04:16.482Z,2238.75
2019-03-27T12:05:16.495Z,2621.25
2019-03-27T12:06:16.495Z,3133.12
2019-03-27T12:07:16.457Z,3375.00
2019-03-27T12:08:16.500Z,2958.75
2019-03-27T12:09:16.426Z,2891.25
2019-03-27T12:10:16.420Z,2126.25
2019-03-27T12:11:16.405Z,3183.75
2019-03-27T12:12:16.394Z,1248.75
2019-03-27T12:13:16.407Z,3245.62
2019-03-27T12:14:16.386Z,1569.38
2019-03-27T12:15:16.525Z,2998.12
2019-03-27T12:16:16.427Z,2874.38
2019-03-27T12:17:16.345Z,2643.75
2019-03-27T12:18:16.355Z,1305.00
2019-03-27T12:19:16.336Z,1552.50
2019-03-27T12:20:16.333Z,3262.50
2019-03-27T12:21:16.343Z,2902.50
2019-03-27T12:22:16.377Z,2216.25
2019-03-27T12:23:16.354Z,2306.25
2019-03-27T12:24:16.286Z,1496.25
2019-03-27T12:25:16.260Z,978.75
2019-03-27T12:26:16.253Z,1738.12
2019-03-27T12:27:16.559Z,2238.75
2019-03-27T12:28:16.256Z,1518.75
2019-03-27T12:29:18.182Z,2671.88
2019-03-27T12:30:16.298Z,2368.12
2019-03-27T12:31:16.251Z,1923.75
2019-03-27T12:32:16.326Z,939.38
2019-03-27T12:33:16.301Z,1603.12
2019-03-27T12:34:16.272Z,1147.50
2019-03-27T12:35:16.183Z,2626.88
2019-03-27T12:36:16.142Z,2570.62
2019-03-27T12:37:16.131Z,2677.50
2019-03-27T12:38:16.132Z,2638.12
2019-03-27T12:39:16.109Z,2840.62
2019-03-27T12:40:16.142Z,3020.62